sensor_id;sensor_type;location;lat;lon;timestamp;P1;durP1;ratioP1;P2;durP2;ratioP2
9420;SDS011;4749;51.398;5.466;2023-06-10T00:02:21;6.95;;;6.25;;
9420;SDS011;4749;51.398;5.466;2023-06-10T00:04:48;6.30;;;5.70;;
9420;SDS011;4749;51.398;5.466;2023-06-10T00:07:16;6.90;;;6.03;;
9420;SDS011;4749;51.398;5.466;2023-06-10T00:09:43;8.05;;;6.38;;
9420;SDS011;4749;51.398;5.466;2023-06-10T00:12:10;9.07;;;6.35;;
9420;SDS011;4749;51.398;5.466;2023-06-10T00:14:38;7.18;;;6.43;;
9420;SDS011;4749;51.398;5.466;2023-06-10T00:17:06;12.00;;;6.47;;
9420;SDS011;4749;51.398;5.466;2023-06-10T00:19:37;6.93;;;5.95;;
9420;SDS011;4749;51.398;5.466;2023-06-10T00:22:08;8.43;;;6.07;;
9420;SDS011;4749;51.398;5.466;2023-06-10T00:24:38;8.65;;;6.60;;
9420;SDS011;4749;51.398;5.466;2023-06-10T00:27:05;8.52;;;6.32;;
9420;SDS011;4749;51.398;5.466;2023-06-10T00:29:33;8.55;;;6.10;;
9420;SDS011;4749;51.398;5.466;2023-06-10T00:32:01;6.97;;;6.05;;
9420;SDS011;4749;51.398;5.466;2023-06-10T00:34:29;6.97;;;6.28;;
9420;SDS011;4749;51.398;5.466;2023-06-10T00:36:56;7.18;;;5.93;;
9420;SDS011;4749;51.398;5.466;2023-06-10T00:39:23;6.68;;;6.07;;
9420;SDS011;4749;51.398;5.466;2023-06-10T00:41:50;9.77;;;6.40;;
9420;SDS011;4749;51.398;5.466;2023-06-10T00:44:17;8.45;;;6.68;;
9420;SDS011;4749;51.398;5.466;2023-06-10T00:46:44;7.30;;;6.35;;
9420;SDS011;4749;51.398;5.466;2023-06-10T00:49:12;10.77;;;6.15;;
9420;SDS011;4749;51.398;5.466;2023-06-10T00:51:39;6.75;;;6.15;;
9420;SDS011;4749;51.398;5.466;2023-06-10T00:54:06;10.15;;;6.57;;
9420;SDS011;4749;51.398;5.466;2023-06-10T00:56:34;7.55;;;6.47;;
9420;SDS011;4749;51.398;5.466;2023-06-10T00:59:02;9.75;;;6.53;;
9420;SDS011;4749;51.398;5.466;2023-06-10T01:01:29;8.38;;;6.13;;
9420;SDS011;4749;51.398;5.466;2023-06-10T01:03:58;7.85;;;6.07;;
9420;SDS011;4749;51.398;5.466;2023-06-10T01:09:17;7.82;;;7.03;;
9420;SDS011;4749;51.398;5.466;2023-06-10T01:11:56;8.98;;;6.65;;
9420;SDS011;4749;51.398;5.466;2023-06-10T01:14:38;8.73;;;7.03;;
9420;SDS011;4749;51.398;5.466;2023-06-10T01:17:11;10.00;;;7.28;;
9420;SDS011;4749;51.398;5.466;2023-06-10T01:19:43;7.05;;;6.35;;
9420;SDS011;4749;51.398;5.466;2023-06-10T01:22:11;8.18;;;7.03;;
9420;SDS011;4749;51.398;5.466;2023-06-10T01:24:42;7.32;;;6.57;;
9420;SDS011;4749;51.398;5.466;2023-06-10T01:27:12;8.32;;;6.82;;
9420;SDS011;4749;51.398;5.466;2023-06-10T01:29:43;9.88;;;7.40;;
9420;SDS011;4749;51.398;5.466;2023-06-10T01:32:21;9.73;;;7.15;;
9420;SDS011;4749;51.398;5.466;2023-06-10T01:34:58;8.57;;;6.70;;
9420;SDS011;4749;51.398;5.466;2023-06-10T01:37:28;8.75;;;6.93;;
9420;SDS011;4749;51.398;5.466;2023-06-10T01:39:57;7.75;;;6.50;;
9420;SDS011;4749;51.398;5.466;2023-06-10T01:42:32;7.82;;;7.05;;
9420;SDS011;4749;51.398;5.466;2023-06-10T01:44:59;9.63;;;6.72;;
9420;SDS011;4749;51.398;5.466;2023-06-10T01:47:27;8.70;;;7.15;;
9420;SDS011;4749;51.398;5.466;2023-06-10T01:49:54;8.57;;;7.78;;
9420;SDS011;4749;51.398;5.466;2023-06-10T01:52:21;9.18;;;7.45;;
9420;SDS011;4749;51.398;5.466;2023-06-10T01:54:48;8.13;;;7.03;;
9420;SDS011;4749;51.398;5.466;2023-06-10T01:57:16;9.88;;;7.30;;
9420;SDS011;4749;51.398;5.466;2023-06-10T01:59:43;9.15;;;7.18;;
9420;SDS011;4749;51.398;5.466;2023-06-10T02:02:13;8.60;;;6.80;;
9420;SDS011;4749;51.398;5.466;2023-06-10T02:04:40;10.23;;;7.22;;
9420;SDS011;4749;51.398;5.466;2023-06-10T02:07:07;9.45;;;7.45;;
9420;SDS011;4749;51.398;5.466;2023-06-10T02:09:34;8.35;;;6.75;;
9420;SDS011;4749;51.398;5.466;2023-06-10T02:12:03;8.30;;;7.35;;
9420;SDS011;4749;51.398;5.466;2023-06-10T02:14:32;7.90;;;7.10;;
9420;SDS011;4749;51.398;5.466;2023-06-10T02:17:00;9.55;;;8.00;;
9420;SDS011;4749;51.398;5.466;2023-06-10T02:19:27;10.60;;;6.72;;
9420;SDS011;4749;51.398;5.466;2023-06-10T02:21:54;8.55;;;6.65;;
9420;SDS011;4749;51.398;5.466;2023-06-10T02:24:21;10.20;;;7.45;;
9420;SDS011;4749;51.398;5.466;2023-06-10T02:26:48;8.20;;;6.93;;
9420;SDS011;4749;51.398;5.466;2023-06-10T02:29:18;8.45;;;7.53;;
9420;SDS011;4749;51.398;5.466;2023-06-10T02:31:45;12.23;;;7.80;;
9420;SDS011;4749;51.398;5.466;2023-06-10T02:34:12;9.68;;;7.70;;
9420;SDS011;4749;51.398;5.466;2023-06-10T02:36:40;9.05;;;6.88;;
9420;SDS011;4749;51.398;5.466;2023-06-10T02:39:07;9.00;;;7.53;;
9420;SDS011;4749;51.398;5.466;2023-06-10T02:41:34;8.55;;;7.65;;
9420;SDS011;4749;51.398;5.466;2023-06-10T02:44:01;9.10;;;6.75;;
9420;SDS011;4749;51.398;5.466;2023-06-10T02:46:28;12.40;;;7.82;;
9420;SDS011;4749;51.398;5.466;2023-06-10T02:48:56;8.32;;;7.50;;
9420;SDS011;4749;51.398;5.466;2023-06-10T02:51:23;9.82;;;7.88;;
9420;SDS011;4749;51.398;5.466;2023-06-10T02:53:50;11.65;;;8.05;;
9420;SDS011;4749;51.398;5.466;2023-06-10T02:56:18;11.00;;;7.57;;
9420;SDS011;4749;51.398;5.466;2023-06-10T02:58:46;9.80;;;7.35;;
9420;SDS011;4749;51.398;5.466;2023-06-10T03:01:14;9.23;;;8.30;;
9420;SDS011;4749;51.398;5.466;2023-06-10T03:03:41;8.70;;;7.90;;
9420;SDS011;4749;51.398;5.466;2023-06-10T03:06:12;11.85;;;7.80;;
9420;SDS011;4749;51.398;5.466;2023-06-10T03:08:40;9.30;;;8.38;;
9420;SDS011;4749;51.398;5.466;2023-06-10T03:11:07;12.35;;;8.50;;
9420;SDS011;4749;51.398;5.466;2023-06-10T03:13:34;11.02;;;8.15;;
9420;SDS011;4749;51.398;5.466;2023-06-10T03:16:01;9.13;;;7.82;;
9420;SDS011;4749;51.398;5.466;2023-06-10T03:18:29;9.25;;;7.55;;
9420;SDS011;4749;51.398;5.466;2023-06-10T03:20:57;9.80;;;8.25;;
9420;SDS011;4749;51.398;5.466;2023-06-10T03:23:24;9.35;;;8.35;;
9420;SDS011;4749;51.398;5.466;2023-06-10T03:25:51;9.80;;;7.88;;
9420;SDS011;4749;51.398;5.466;2023-06-10T03:28:18;10.30;;;8.50;;
9420;SDS011;4749;51.398;5.466;2023-06-10T03:30:46;10.88;;;8.38;;
9420;SDS011;4749;51.398;5.466;2023-06-10T03:33:15;10.88;;;8.07;;
9420;SDS011;4749;51.398;5.466;2023-06-10T03:35:42;8.60;;;7.72;;
9420;SDS011;4749;51.398;5.466;2023-06-10T03:38:09;9.80;;;8.25;;
9420;SDS011;4749;51.398;5.466;2023-06-10T03:40:37;9.45;;;7.78;;
9420;SDS011;4749;51.398;5.466;2023-06-10T03:43:04;9.00;;;7.68;;
9420;SDS011;4749;51.398;5.466;2023-06-10T03:45:31;11.13;;;8.18;;
9420;SDS011;4749;51.398;5.466;2023-06-10T03:47:58;13.38;;;7.97;;
9420;SDS011;4749;51.398;5.466;2023-06-10T03:50:27;11.30;;;8.80;;
9420;SDS011;4749;51.398;5.466;2023-06-10T03:52:54;10.02;;;8.18;;
9420;SDS011;4749;51.398;5.466;2023-06-10T03:55:21;11.43;;;8.27;;
9420;SDS011;4749;51.398;5.466;2023-06-10T03:57:49;14.68;;;9.35;;
9420;SDS011;4749;51.398;5.466;2023-06-10T04:00:17;9.65;;;8.18;;
9420;SDS011;4749;51.398;5.466;2023-06-10T04:02:47;10.63;;;8.43;;
9420;SDS011;4749;51.398;5.466;2023-06-10T04:05:17;10.02;;;8.40;;
9420;SDS011;4749;51.398;5.466;2023-06-10T04:07:49;11.63;;;8.55;;
9420;SDS011;4749;51.398;5.466;2023-06-10T04:10:16;11.70;;;9.00;;
9420;SDS011;4749;51.398;5.466;2023-06-10T04:12:44;9.88;;;8.40;;
9420;SDS011;4749;51.398;5.466;2023-06-10T04:15:11;10.95;;;8.43;;
9420;SDS011;4749;51.398;5.466;2023-06-10T04:17:39;10.07;;;9.00;;
9420;SDS011;4749;51.398;5.466;2023-06-10T04:20:06;10.57;;;8.98;;
9420;SDS011;4749;51.398;5.466;2023-06-10T04:22:35;10.13;;;9.02;;
9420;SDS011;4749;51.398;5.466;2023-06-10T04:25:02;10.13;;;9.02;;
9420;SDS011;4749;51.398;5.466;2023-06-10T04:27:29;9.10;;;8.27;;
9420;SDS011;4749;51.398;5.466;2023-06-10T04:29:57;10.13;;;8.95;;
9420;SDS011;4749;51.398;5.466;2023-06-10T04:32:24;10.63;;;9.25;;
9420;SDS011;4749;51.398;5.466;2023-06-10T04:34:52;10.75;;;9.20;;
9420;SDS011;4749;51.398;5.466;2023-06-10T04:37:19;11.55;;;9.50;;
9420;SDS011;4749;51.398;5.466;2023-06-10T04:39:46;12.30;;;9.27;;
9420;SDS011;4749;51.398;5.466;2023-06-10T04:42:13;11.43;;;10.23;;
9420;SDS011;4749;51.398;5.466;2023-06-10T04:44:40;13.63;;;9.90;;
9420;SDS011;4749;51.398;5.466;2023-06-10T04:47:08;12.73;;;9.82;;
9420;SDS011;4749;51.398;5.466;2023-06-10T04:49:35;11.95;;;10.40;;
9420;SDS011;4749;51.398;5.466;2023-06-10T04:52:02;13.77;;;10.02;;
9420;SDS011;4749;51.398;5.466;2023-06-10T04:54:31;10.23;;;9.23;;
9420;SDS011;4749;51.398;5.466;2023-06-10T04:56:58;11.02;;;9.73;;
9420;SDS011;4749;51.398;5.466;2023-06-10T04:59:26;10.95;;;9.80;;
9420;SDS011;4749;51.398;5.466;2023-06-10T05:01:54;11.38;;;10.18;;
9420;SDS011;4749;51.398;5.466;2023-06-10T05:04:21;11.85;;;9.88;;
9420;SDS011;4749;51.398;5.466;2023-06-10T05:06:48;13.95;;;10.05;;
9420;SDS011;4749;51.398;5.466;2023-06-10T05:09:16;11.38;;;10.02;;
9420;SDS011;4749;51.398;5.466;2023-06-10T05:11:43;11.40;;;10.23;;
9420;SDS011;4749;51.398;5.466;2023-06-10T05:14:11;11.35;;;9.50;;
9420;SDS011;4749;51.398;5.466;2023-06-10T05:16:38;11.70;;;9.95;;
9420;SDS011;4749;51.398;5.466;2023-06-10T05:19:05;13.48;;;10.80;;
9420;SDS011;4749;51.398;5.466;2023-06-10T05:21:34;12.18;;;10.05;;
9420;SDS011;4749;51.398;5.466;2023-06-10T05:24:01;13.65;;;10.45;;
9420;SDS011;4749;51.398;5.466;2023-06-10T05:26:28;11.50;;;10.23;;
9420;SDS011;4749;51.398;5.466;2023-06-10T05:28:57;12.30;;;10.25;;
9420;SDS011;4749;51.398;5.466;2023-06-10T05:31:25;12.75;;;10.63;;
9420;SDS011;4749;51.398;5.466;2023-06-10T05:33:52;11.80;;;10.05;;
9420;SDS011;4749;51.398;5.466;2023-06-10T05:36:19;11.70;;;10.60;;
9420;SDS011;4749;51.398;5.466;2023-06-10T05:38:46;12.15;;;10.95;;
9420;SDS011;4749;51.398;5.466;2023-06-10T05:41:13;15.38;;;10.43;;
9420;SDS011;4749;51.398;5.466;2023-06-10T05:43:40;11.95;;;10.68;;
9420;SDS011;4749;51.398;5.466;2023-06-10T05:46:08;11.90;;;10.02;;
9420;SDS011;4749;51.398;5.466;2023-06-10T05:48:35;15.60;;;11.05;;
9420;SDS011;4749;51.398;5.466;2023-06-10T05:51:02;11.60;;;10.45;;
9420;SDS011;4749;51.398;5.466;2023-06-10T05:53:29;13.82;;;10.68;;
9420;SDS011;4749;51.398;5.466;2023-06-10T05:55:57;13.07;;;10.88;;
9420;SDS011;4749;51.398;5.466;2023-06-10T05:58:24;11.20;;;10.05;;
9420;SDS011;4749;51.398;5.466;2023-06-10T06:00:52;13.38;;;9.95;;
9420;SDS011;4749;51.398;5.466;2023-06-10T06:03:19;11.90;;;10.60;;
9420;SDS011;4749;51.398;5.466;2023-06-10T06:05:54;10.93;;;9.82;;
9420;SDS011;4749;51.398;5.466;2023-06-10T06:08:21;12.93;;;10.18;;
9420;SDS011;4749;51.398;5.466;2023-06-10T06:10:48;12.40;;;10.23;;
9420;SDS011;4749;51.398;5.466;2023-06-10T06:13:16;11.15;;;9.88;;
9420;SDS011;4749;51.398;5.466;2023-06-10T06:15:43;14.15;;;10.68;;
9420;SDS011;4749;51.398;5.466;2023-06-10T06:18:10;11.82;;;9.95;;
9420;SDS011;4749;51.398;5.466;2023-06-10T06:20:38;15.00;;;10.73;;
9420;SDS011;4749;51.398;5.466;2023-06-10T06:23:05;12.13;;;10.15;;
9420;SDS011;4749;51.398;5.466;2023-06-10T06:25:32;11.57;;;10.38;;
9420;SDS011;4749;51.398;5.466;2023-06-10T06:28:02;11.32;;;10.10;;
9420;SDS011;4749;51.398;5.466;2023-06-10T06:30:29;13.48;;;10.20;;
9420;SDS011;4749;51.398;5.466;2023-06-10T06:32:56;13.48;;;9.40;;
9420;SDS011;4749;51.398;5.466;2023-06-10T06:35:23;18.15;;;9.93;;
9420;SDS011;4749;51.398;5.466;2023-06-10T06:37:50;13.65;;;9.40;;
9420;SDS011;4749;51.398;5.466;2023-06-10T06:40:17;13.50;;;9.60;;
9420;SDS011;4749;51.398;5.466;2023-06-10T06:42:44;13.18;;;10.45;;
9420;SDS011;4749;51.398;5.466;2023-06-10T06:45:11;10.38;;;9.35;;
9420;SDS011;4749;51.398;5.466;2023-06-10T06:47:39;11.73;;;9.73;;
9420;SDS011;4749;51.398;5.466;2023-06-10T06:50:06;11.68;;;9.82;;
9420;SDS011;4749;51.398;5.466;2023-06-10T06:52:34;11.27;;;9.65;;
9420;SDS011;4749;51.398;5.466;2023-06-10T06:55:01;10.80;;;9.57;;
9420;SDS011;4749;51.398;5.466;2023-06-10T06:57:28;11.50;;;8.85;;
9420;SDS011;4749;51.398;5.466;2023-06-10T06:59:55;11.10;;;9.45;;
9420;SDS011;4749;51.398;5.466;2023-06-10T07:02:23;12.10;;;9.40;;
9420;SDS011;4749;51.398;5.466;2023-06-10T07:04:50;11.05;;;9.52;;
9420;SDS011;4749;51.398;5.466;2023-06-10T07:07:17;11.02;;;9.73;;
9420;SDS011;4749;51.398;5.466;2023-06-10T07:09:44;11.75;;;9.57;;
9420;SDS011;4749;51.398;5.466;2023-06-10T07:12:11;9.43;;;8.45;;
9420;SDS011;4749;51.398;5.466;2023-06-10T07:14:38;11.27;;;8.68;;
9420;SDS011;4749;51.398;5.466;2023-06-10T07:17:05;13.25;;;8.95;;
9420;SDS011;4749;51.398;5.466;2023-06-10T07:19:33;11.15;;;8.88;;
9420;SDS011;4749;51.398;5.466;2023-06-10T07:22:00;9.27;;;8.20;;
9420;SDS011;4749;51.398;5.466;2023-06-10T07:24:27;9.85;;;8.18;;
9420;SDS011;4749;51.398;5.466;2023-06-10T07:26:54;8.93;;;8.02;;
9420;SDS011;4749;51.398;5.466;2023-06-10T07:29:21;10.98;;;8.63;;
9420;SDS011;4749;51.398;5.466;2023-06-10T07:31:48;9.35;;;7.65;;
9420;SDS011;4749;51.398;5.466;2023-06-10T07:34:15;10.20;;;8.15;;
9420;SDS011;4749;51.398;5.466;2023-06-10T07:36:42;10.90;;;8.20;;
9420;SDS011;4749;51.398;5.466;2023-06-10T07:39:09;10.02;;;7.50;;
9420;SDS011;4749;51.398;5.466;2023-06-10T07:41:37;12.48;;;8.10;;
9420;SDS011;4749;51.398;5.466;2023-06-10T07:44:04;9.15;;;7.45;;
9420;SDS011;4749;51.398;5.466;2023-06-10T07:46:31;8.95;;;7.10;;
9420;SDS011;4749;51.398;5.466;2023-06-10T07:48:58;10.07;;;7.38;;
9420;SDS011;4749;51.398;5.466;2023-06-10T07:51:25;8.23;;;7.18;;
9420;SDS011;4749;51.398;5.466;2023-06-10T07:53:52;8.30;;;6.72;;
9420;SDS011;4749;51.398;5.466;2023-06-10T07:56:19;8.63;;;7.15;;
9420;SDS011;4749;51.398;5.466;2023-06-10T07:58:47;9.85;;;7.22;;
9420;SDS011;4749;51.398;5.466;2023-06-10T08:01:15;11.55;;;7.38;;
9420;SDS011;4749;51.398;5.466;2023-06-10T08:03:42;9.32;;;7.30;;
9420;SDS011;4749;51.398;5.466;2023-06-10T08:06:10;8.15;;;7.18;;
9420;SDS011;4749;51.398;5.466;2023-06-10T08:08:37;11.70;;;7.20;;
9420;SDS011;4749;51.398;5.466;2023-06-10T08:11:13;7.43;;;6.60;;
9420;SDS011;4749;51.398;5.466;2023-06-10T08:13:40;7.75;;;6.95;;
9420;SDS011;4749;51.398;5.466;2023-06-10T08:16:07;7.70;;;6.55;;
9420;SDS011;4749;51.398;5.466;2023-06-10T08:18:34;7.22;;;5.93;;
9420;SDS011;4749;51.398;5.466;2023-06-10T08:21:05;8.70;;;6.40;;
9420;SDS011;4749;51.398;5.466;2023-06-10T08:23:32;8.10;;;6.07;;
9420;SDS011;4749;51.398;5.466;2023-06-10T08:25:59;7.55;;;6.13;;
9420;SDS011;4749;51.398;5.466;2023-06-10T08:28:26;8.38;;;6.00;;
9420;SDS011;4749;51.398;5.466;2023-06-10T08:30:54;8.00;;;5.82;;
9420;SDS011;4749;51.398;5.466;2023-06-10T08:33:23;13.55;;;6.90;;
9420;SDS011;4749;51.398;5.466;2023-06-10T08:35:50;10.10;;;6.32;;
9420;SDS011;4749;51.398;5.466;2023-06-10T08:38:17;7.82;;;6.05;;
9420;SDS011;4749;51.398;5.466;2023-06-10T08:40:44;10.10;;;6.55;;
9420;SDS011;4749;51.398;5.466;2023-06-10T08:43:21;7.57;;;5.88;;
9420;SDS011;4749;51.398;5.466;2023-06-10T08:45:59;8.50;;;6.07;;
9420;SDS011;4749;51.398;5.466;2023-06-10T08:48:29;7.50;;;5.93;;
9420;SDS011;4749;51.398;5.466;2023-06-10T08:50:57;7.47;;;5.78;;
9420;SDS011;4749;51.398;5.466;2023-06-10T08:53:26;13.10;;;6.80;;
9420;SDS011;4749;51.398;5.466;2023-06-10T08:55:56;7.15;;;5.93;;
9420;SDS011;4749;51.398;5.466;2023-06-10T08:58:27;9.57;;;6.30;;
9420;SDS011;4749;51.398;5.466;2023-06-10T09:00:54;9.00;;;5.70;;
9420;SDS011;4749;51.398;5.466;2023-06-10T09:03:22;7.53;;;6.25;;
9420;SDS011;4749;51.398;5.466;2023-06-10T09:05:50;10.98;;;5.80;;
9420;SDS011;4749;51.398;5.466;2023-06-10T09:08:18;7.60;;;5.82;;
9420;SDS011;4749;51.398;5.466;2023-06-10T09:10:45;7.68;;;6.18;;
9420;SDS011;4749;51.398;5.466;2023-06-10T09:13:12;6.60;;;5.85;;
9420;SDS011;4749;51.398;5.466;2023-06-10T09:15:41;8.55;;;5.95;;
9420;SDS011;4749;51.398;5.466;2023-06-10T09:18:09;9.18;;;5.85;;
9420;SDS011;4749;51.398;5.466;2023-06-10T09:20:36;8.00;;;5.55;;
9420;SDS011;4749;51.398;5.466;2023-06-10T09:23:05;8.18;;;5.78;;
9420;SDS011;4749;51.398;5.466;2023-06-10T09:25:36;9.90;;;5.82;;
9420;SDS011;4749;51.398;5.466;2023-06-10T09:28:04;9.30;;;5.82;;
9420;SDS011;4749;51.398;5.466;2023-06-10T09:30:41;8.95;;;5.50;;
9420;SDS011;4749;51.398;5.466;2023-06-10T09:33:13;9.02;;;5.07;;
9420;SDS011;4749;51.398;5.466;2023-06-10T09:35:46;9.10;;;5.93;;
9420;SDS011;4749;51.398;5.466;2023-06-10T09:38:21;5.65;;;5.05;;
9420;SDS011;4749;51.398;5.466;2023-06-10T09:40:49;6.18;;;5.43;;
9420;SDS011;4749;51.398;5.466;2023-06-10T09:43:20;8.70;;;5.35;;
9420;SDS011;4749;51.398;5.466;2023-06-10T09:45:49;6.72;;;5.75;;
9420;SDS011;4749;51.398;5.466;2023-06-10T09:48:22;8.15;;;5.25;;
9420;SDS011;4749;51.398;5.466;2023-06-10T09:50:50;7.15;;;5.43;;
9420;SDS011;4749;51.398;5.466;2023-06-10T09:53:17;6.85;;;5.38;;
9420;SDS011;4749;51.398;5.466;2023-06-10T09:55:45;6.25;;;5.22;;
9420;SDS011;4749;51.398;5.466;2023-06-10T09:58:12;12.82;;;5.25;;
9420;SDS011;4749;51.398;5.466;2023-06-10T10:00:40;5.90;;;5.30;;
9420;SDS011;4749;51.398;5.466;2023-06-10T10:03:07;6.60;;;5.47;;
9420;SDS011;4749;51.398;5.466;2023-06-10T10:05:34;8.35;;;5.50;;
9420;SDS011;4749;51.398;5.466;2023-06-10T10:08:02;12.52;;;5.45;;
9420;SDS011;4749;51.398;5.466;2023-06-10T10:10:29;7.78;;;5.60;;
9420;SDS011;4749;51.398;5.466;2023-06-10T10:12:56;7.97;;;5.85;;
9420;SDS011;4749;51.398;5.466;2023-06-10T10:15:25;6.00;;;5.40;;
9420;SDS011;4749;51.398;5.466;2023-06-10T10:18:09;5.57;;;5.03;;
9420;SDS011;4749;51.398;5.466;2023-06-10T10:20:46;5.75;;;5.15;;
9420;SDS011;4749;51.398;5.466;2023-06-10T10:23:20;6.45;;;5.32;;
9420;SDS011;4749;51.398;5.466;2023-06-10T10:26:03;8.45;;;5.18;;
9420;SDS011;4749;51.398;5.466;2023-06-10T10:28:37;6.25;;;5.20;;
9420;SDS011;4749;51.398;5.466;2023-06-10T10:31:16;10.05;;;5.72;;
9420;SDS011;4749;51.398;5.466;2023-06-10T10:33:56;5.43;;;4.88;;
9420;SDS011;4749;51.398;5.466;2023-06-10T10:36:27;6.15;;;5.38;;
9420;SDS011;4749;51.398;5.466;2023-06-10T10:38:54;5.53;;;5.03;;
9420;SDS011;4749;51.398;5.466;2023-06-10T10:41:22;6.40;;;5.38;;
9420;SDS011;4749;51.398;5.466;2023-06-10T10:43:52;7.15;;;5.53;;
9420;SDS011;4749;51.398;5.466;2023-06-10T10:46:20;7.63;;;5.32;;
9420;SDS011;4749;51.398;5.466;2023-06-10T10:48:51;5.57;;;5.07;;
9420;SDS011;4749;51.398;5.466;2023-06-10T10:51:23;7.70;;;5.18;;
9420;SDS011;4749;51.398;5.466;2023-06-10T11:02:15;6.78;;;5.53;;
9420;SDS011;4749;51.398;5.466;2023-06-10T11:05:07;5.60;;;5.03;;
9420;SDS011;4749;51.398;5.466;2023-06-10T11:07:36;9.55;;;4.78;;
9420;SDS011;4749;51.398;5.466;2023-06-10T11:10:07;5.88;;;5.28;;
9420;SDS011;4749;51.398;5.466;2023-06-10T12:16:52;7.38;;;5.25;;
9420;SDS011;4749;51.398;5.466;2023-06-10T12:19:19;5.38;;;4.30;;
9420;SDS011;4749;51.398;5.466;2023-06-10T12:21:46;4.70;;;4.22;;
9420;SDS011;4749;51.398;5.466;2023-06-10T12:24:13;6.03;;;5.03;;
9420;SDS011;4749;51.398;5.466;2023-06-10T12:26:41;8.10;;;4.35;;
9420;SDS011;4749;51.398;5.466;2023-06-10T12:29:20;5.70;;;5.07;;
9420;SDS011;4749;51.398;5.466;2023-06-10T12:31:51;5.53;;;4.72;;
9420;SDS011;4749;51.398;5.466;2023-06-10T12:34:35;6.63;;;5.00;;
9420;SDS011;4749;51.398;5.466;2023-06-10T12:37:10;10.32;;;5.30;;
9420;SDS011;4749;51.398;5.466;2023-06-10T12:39:41;6.05;;;5.20;;
9420;SDS011;4749;51.398;5.466;2023-06-10T12:42:18;8.23;;;5.05;;
9420;SDS011;4749;51.398;5.466;2023-06-10T12:44:54;6.65;;;5.03;;
9420;SDS011;4749;51.398;5.466;2023-06-10T12:47:29;5.20;;;4.70;;
9420;SDS011;4749;51.398;5.466;2023-06-10T12:50:08;5.55;;;4.85;;
9420;SDS011;4749;51.398;5.466;2023-06-10T12:52:36;8.55;;;5.07;;
9420;SDS011;4749;51.398;5.466;2023-06-10T12:55:03;7.95;;;5.05;;
9420;SDS011;4749;51.398;5.466;2023-06-10T12:57:31;5.28;;;4.40;;
9420;SDS011;4749;51.398;5.466;2023-06-10T12:59:58;5.45;;;4.95;;
9420;SDS011;4749;51.398;5.466;2023-06-10T13:02:30;6.00;;;4.95;;
9420;SDS011;4749;51.398;5.466;2023-06-10T13:04:58;6.05;;;5.22;;
9420;SDS011;4749;51.398;5.466;2023-06-10T13:07:25;8.45;;;5.22;;
9420;SDS011;4749;51.398;5.466;2023-06-10T13:09:52;5.53;;;4.70;;
9420;SDS011;4749;51.398;5.466;2023-06-10T13:12:20;6.50;;;4.68;;
9420;SDS011;4749;51.398;5.466;2023-06-10T13:15:07;5.28;;;4.78;;
9420;SDS011;4749;51.398;5.466;2023-06-10T13:17:35;6.88;;;5.25;;
9420;SDS011;4749;51.398;5.466;2023-06-10T13:20:03;5.53;;;4.95;;
9420;SDS011;4749;51.398;5.466;2023-06-10T13:22:32;5.53;;;4.80;;
9420;SDS011;4749;51.398;5.466;2023-06-10T13:25:01;5.40;;;4.75;;
9420;SDS011;4749;51.398;5.466;2023-06-10T13:27:30;6.30;;;4.82;;
9420;SDS011;4749;51.398;5.466;2023-06-10T13:29:57;5.50;;;4.55;;
9420;SDS011;4749;51.398;5.466;2023-06-10T13:32:24;7.47;;;5.10;;
9420;SDS011;4749;51.398;5.466;2023-06-10T13:34:51;6.63;;;5.00;;
9420;SDS011;4749;51.398;5.466;2023-06-10T13:37:19;6.03;;;4.78;;
9420;SDS011;4749;51.398;5.466;2023-06-10T13:39:46;5.72;;;4.43;;
9420;SDS011;4749;51.398;5.466;2023-06-10T13:42:17;5.88;;;5.00;;
9420;SDS011;4749;51.398;5.466;2023-06-10T13:44:45;9.25;;;5.32;;
9420;SDS011;4749;51.398;5.466;2023-06-10T13:47:15;6.05;;;4.47;;
9420;SDS011;4749;51.398;5.466;2023-06-10T13:49:42;6.13;;;5.53;;
9420;SDS011;4749;51.398;5.466;2023-06-10T13:52:09;6.32;;;5.25;;
9420;SDS011;4749;51.398;5.466;2023-06-10T13:54:36;7.38;;;5.00;;
9420;SDS011;4749;51.398;5.466;2023-06-10T13:57:04;7.03;;;5.10;;
9420;SDS011;4749;51.398;5.466;2023-06-10T13:59:31;7.88;;;5.18;;
9420;SDS011;4749;51.398;5.466;2023-06-10T14:01:58;5.40;;;4.85;;
9420;SDS011;4749;51.398;5.466;2023-06-10T14:04:26;6.53;;;4.88;;
9420;SDS011;4749;51.398;5.466;2023-06-10T14:06:54;5.32;;;4.80;;
9420;SDS011;4749;51.398;5.466;2023-06-10T14:09:21;5.38;;;4.70;;
9420;SDS011;4749;51.398;5.466;2023-06-10T14:11:48;5.97;;;4.65;;
9420;SDS011;4749;51.398;5.466;2023-06-10T14:14:15;7.90;;;4.97;;
9420;SDS011;4749;51.398;5.466;2023-06-10T14:16:43;5.43;;;4.93;;
9420;SDS011;4749;51.398;5.466;2023-06-10T14:19:10;6.80;;;4.95;;
9420;SDS011;4749;51.398;5.466;2023-06-10T14:21:38;5.57;;;5.07;;
9420;SDS011;4749;51.398;5.466;2023-06-10T14:24:05;7.68;;;4.63;;
9420;SDS011;4749;51.398;5.466;2023-06-10T14:26:32;9.65;;;5.00;;
9420;SDS011;4749;51.398;5.466;2023-06-10T14:29:00;6.80;;;4.65;;
9420;SDS011;4749;51.398;5.466;2023-06-10T14:31:29;10.73;;;5.22;;
9420;SDS011;4749;51.398;5.466;2023-06-10T14:33:56;6.18;;;5.05;;
9420;SDS011;4749;51.398;5.466;2023-06-10T14:36:23;6.18;;;5.00;;
9420;SDS011;4749;51.398;5.466;2023-06-10T14:38:50;5.80;;;5.20;;
9420;SDS011;4749;51.398;5.466;2023-06-10T14:41:17;11.07;;;5.18;;
9420;SDS011;4749;51.398;5.466;2023-06-10T14:43:44;6.47;;;4.85;;
9420;SDS011;4749;51.398;5.466;2023-06-10T14:46:11;6.57;;;5.03;;
9420;SDS011;4749;51.398;5.466;2023-06-10T14:48:39;6.53;;;5.10;;
9420;SDS011;4749;51.398;5.466;2023-06-10T14:51:06;6.30;;;5.00;;
9420;SDS011;4749;51.398;5.466;2023-06-10T14:53:33;5.65;;;5.07;;
9420;SDS011;4749;51.398;5.466;2023-06-10T14:56:01;7.07;;;5.13;;
9420;SDS011;4749;51.398;5.466;2023-06-10T14:58:28;6.53;;;4.80;;
9420;SDS011;4749;51.398;5.466;2023-06-10T15:00:55;5.50;;;5.00;;
9420;SDS011;4749;51.398;5.466;2023-06-10T15:03:23;5.95;;;5.32;;
9420;SDS011;4749;51.398;5.466;2023-06-10T15:05:50;5.65;;;4.70;;
9420;SDS011;4749;51.398;5.466;2023-06-10T15:08:18;7.63;;;5.47;;
9420;SDS011;4749;51.398;5.466;2023-06-10T15:10:45;6.22;;;5.20;;
9420;SDS011;4749;51.398;5.466;2023-06-10T15:13:14;5.82;;;5.10;;
9420;SDS011;4749;51.398;5.466;2023-06-10T15:15:41;7.20;;;5.28;;
9420;SDS011;4749;51.398;5.466;2023-06-10T15:18:09;5.70;;;5.20;;
9420;SDS011;4749;51.398;5.466;2023-06-10T15:20:36;5.53;;;5.03;;
9420;SDS011;4749;51.398;5.466;2023-06-10T15:23:03;7.43;;;5.20;;
9420;SDS011;4749;51.398;5.466;2023-06-10T15:25:30;6.47;;;5.25;;
9420;SDS011;4749;51.398;5.466;2023-06-10T15:27:58;8.32;;;5.65;;
9420;SDS011;4749;51.398;5.466;2023-06-10T15:30:25;6.30;;;5.70;;
9420;SDS011;4749;51.398;5.466;2023-06-10T15:32:53;5.53;;;4.97;;
9420;SDS011;4749;51.398;5.466;2023-06-10T15:35:20;6.13;;;5.63;;
9420;SDS011;4749;51.398;5.466;2023-06-10T15:37:48;6.03;;;5.50;;
9420;SDS011;4749;51.398;5.466;2023-06-10T15:40:15;7.13;;;5.70;;
9420;SDS011;4749;51.398;5.466;2023-06-10T15:42:42;7.82;;;5.53;;
9420;SDS011;4749;51.398;5.466;2023-06-10T15:45:10;6.35;;;5.75;;
9420;SDS011;4749;51.398;5.466;2023-06-10T15:47:38;6.82;;;6.13;;
9420;SDS011;4749;51.398;5.466;2023-06-10T15:50:08;7.68;;;5.75;;
9420;SDS011;4749;51.398;5.466;2023-06-10T15:52:36;8.07;;;6.20;;
9420;SDS011;4749;51.398;5.466;2023-06-10T15:55:03;6.70;;;6.10;;
9420;SDS011;4749;51.398;5.466;2023-06-10T15:57:31;6.72;;;5.40;;
9420;SDS011;4749;51.398;5.466;2023-06-10T15:59:58;7.03;;;5.50;;
9420;SDS011;4749;51.398;5.466;2023-06-10T16:02:25;6.97;;;5.70;;
9420;SDS011;4749;51.398;5.466;2023-06-10T16:04:53;7.82;;;5.88;;
9420;SDS011;4749;51.398;5.466;2023-06-10T16:07:20;6.68;;;5.20;;
9420;SDS011;4749;51.398;5.466;2023-06-10T16:09:47;5.38;;;4.80;;
9420;SDS011;4749;51.398;5.466;2023-06-10T16:12:14;6.85;;;5.57;;
9420;SDS011;4749;51.398;5.466;2023-06-10T16:14:42;5.88;;;5.38;;
9420;SDS011;4749;51.398;5.466;2023-06-10T16:17:09;9.32;;;5.63;;
9420;SDS011;4749;51.398;5.466;2023-06-10T16:19:36;6.07;;;5.47;;
9420;SDS011;4749;51.398;5.466;2023-06-10T16:22:05;7.97;;;5.72;;
9420;SDS011;4749;51.398;5.466;2023-06-10T16:24:32;6.50;;;5.32;;
9420;SDS011;4749;51.398;5.466;2023-06-10T16:27:00;8.60;;;5.47;;
9420;SDS011;4749;51.398;5.466;2023-06-10T16:29:27;5.93;;;5.20;;
9420;SDS011;4749;51.398;5.466;2023-06-10T16:31:54;7.38;;;5.50;;
9420;SDS011;4749;51.398;5.466;2023-06-10T16:34:21;5.63;;;5.05;;